Observation data for Spur on 11/08/2019      Previous  Date       Current Mesonet Observations  Soil Data  Daily Summary Page  Observations in Plain Language
KSP1 080600Z 01004KT 02/M01 A3046 RMK A01 T00231011  RH  079%=      5-min Rain = 0
KSP1 080605Z 02005KT 02/M01 A3046 RMK A01 T00231011  RH  079%=      5-min Rain = 0
KSP1 080610Z 01006KT 02/M02 A3046 RMK A01 T00231015  RH  077%=      5-min Rain = 0
KSP1 080615Z 01006KT 02/M02 A3046 RMK A01 T00231015  RH  077%=      5-min Rain = 0
KSP1 080620Z 02006KT 02/M02 A3046 RMK A01 T00231015  RH  077%=      5-min Rain = 0
KSP1 080625Z 02007KT 02/M02 A3046 RMK A01 T00231017  RH  076%=      5-min Rain = 0
KSP1 080630Z 02006KT 02/M02 A3046 RMK A01 T00231015  RH  076%=      5-min Rain = 0
KSP1 080635Z 02006KT 02/M02 A3046 RMK A01 T00231016  RH  076%=      5-min Rain = 0
KSP1 080640Z 02007KT 02/M02 A3046 RMK A01 T00231018  RH  075%=      5-min Rain = 0
KSP1 080645Z 02006KT 02/M02 A3046 RMK A01 T00231019  RH  074%=      5-min Rain = 0
KSP1 080650Z 02006KT 02/M02 A3046 RMK A01 T00231018  RH  075%=      5-min Rain = 0
KSP1 080655Z 01006KT 02/M02 A3046 RMK A01 T00241018  RH  075%=      5-min Rain = 0
KSP1 080700Z 01005KT 02/M02 A3046 RMK A01 T00241017  RH  075%=      5-min Rain = 0
KSP1 080705Z 02005KT 02/M02 A3046 RMK A01 T00241019  RH  074%=      5-min Rain = 0
KSP1 080710Z 02004KT 02/M02 A3046 RMK A01 T00241018  RH  074%=      5-min Rain = 0
KSP1 080715Z 03005KT 02/M02 A3045 RMK A01 T00241019  RH  074%=      5-min Rain = 0
KSP1 080720Z 02006KT 02/M02 A3045 RMK A01 T00241021  RH  073%=      5-min Rain = 0
KSP1 080725Z 02005KT 02/M02 A3045 RMK A01 T00241021  RH  073%=      5-min Rain = 0
KSP1 080730Z 02005KT 03/M02 A3045 RMK A01 T00251020  RH  073%=      5-min Rain = 0
KSP1 080735Z 02004KT 03/M02 A3045 RMK A01 T00251020  RH  073%=      5-min Rain = 0
KSP1 080740Z 02004KT 03/M02 A3045 RMK A01 T00251021  RH  073%=      5-min Rain = 0
KSP1 080745Z 02005KT 03/M02 A3045 RMK A01 T00251021  RH  072%=      5-min Rain = 0
KSP1 080750Z 03005KT 03/M02 A3045 RMK A01 T00251023  RH  072%=      5-min Rain = 0
KSP1 080755Z 03005KT 03/M02 A3045 RMK A01 T00251024  RH  071%=      5-min Rain = 0
KSP1 080800Z 02004KT 03/M02 A3045 RMK A01 T00251021  RH  072%=      5-min Rain = 0
KSP1 080805Z 02005KT 03/M02 A3045 RMK A01 T00251022  RH  072%=      5-min Rain = 0
KSP1 080810Z 02005KT 03/M02 A3045 RMK A01 T00251022  RH  072%=      5-min Rain = 0
KSP1 080815Z 02005KT 03/M02 A3044 RMK A01 T00251021  RH  072%=      5-min Rain = 0
KSP1 080820Z 02005KT 03/M02 A3044 RMK A01 T00251020  RH  073%=      5-min Rain = 0
KSP1 080825Z 03006KT 03/M02 A3044 RMK A01 T00251021  RH  072%=      5-min Rain = 0
KSP1 080830Z 03006KT 03/M02 A3044 RMK A01 T00251022  RH  072%=      5-min Rain = 0
KSP1 080835Z 02005KT 03/M02 A3044 RMK A01 T00251022  RH  072%=      5-min Rain = 0
KSP1 080840Z 02004KT 03/M02 A3043 RMK A01 T00251019  RH  073%=      5-min Rain = 0
KSP1 080845Z 02005KT 03/M02 A3043 RMK A01 T00251019  RH  073%=      5-min Rain = 0
KSP1 080850Z 01005KT 03/M02 A3043 RMK A01 T00251020  RH  072%=      5-min Rain = 0
KSP1 080855Z 01006KT 03/M02 A3043 RMK A01 T00251022  RH  072%=      5-min Rain = 0
KSP1 080900Z 01006KT 03/M02 A3043 RMK A01 T00251022  RH  071%=      5-min Rain = 0
KSP1 080905Z 01005KT 03/M02 A3043 RMK A01 T00261021  RH  072%=      5-min Rain = 0
KSP1 080910Z 02005KT 03/M02 A3043 RMK A01 T00261022  RH  071%=      5-min Rain = 0
KSP1 080915Z 02005KT 03/M02 A3043 RMK A01 T00261023  RH  071%=      5-min Rain = 0
KSP1 080920Z 01004KT 03/M02 A3043 RMK A01 T00261024  RH  070%=      5-min Rain = 0
KSP1 080925Z 01004KT 03/M02 A3043 RMK A01 T00261020  RH  072%=      5-min Rain = 0
KSP1 080930Z 02004KT 03/M02 A3043 RMK A01 T00271021  RH  072%=      5-min Rain = 0
KSP1 080935Z 02004KT 03/M02 A3043 RMK A01 T00271021  RH  071%=      5-min Rain = 0
KSP1 080940Z 02004KT 03/M02 A3043 RMK A01 T00271020  RH  072%=      5-min Rain = 0
KSP1 080945Z 02005KT 03/M02 A3043 RMK A01 T00271023  RH  070%=      5-min Rain = 0
KSP1 080950Z 03005KT 03/M03 A3042 RMK A01 T00271026  RH  069%=      5-min Rain = 0
KSP1 080955Z 02005KT 03/M03 A3042 RMK A01 T00271025  RH  069%=      5-min Rain = 0
KSP1 081000Z 02004KT 03/M02 A3042 RMK A01 T00271024  RH  069%=      5-min Rain = 0
KSP1 081005Z 02004KT 03/M03 A3042 RMK A01 T00281025  RH  069%=      5-min Rain = 0
KSP1 081010Z 02004KT 03/M03 A3042 RMK A01 T00281028  RH  067%=      5-min Rain = 0
KSP1 081015Z 03004KT 03/M03 A3042 RMK A01 T00281027  RH  067%=      5-min Rain = 0
KSP1 081020Z 03004KT 03/M03 A3042 RMK A01 T00281026  RH  068%=      5-min Rain = 0
KSP1 081025Z 03004KT 03/M02 A3042 RMK A01 T00281024  RH  069%=      5-min Rain = 0
KSP1 081030Z 02003KT 03/M02 A3042 RMK A01 T00281024  RH  069%=      5-min Rain = 0
KSP1 081035Z 03004KT 03/M03 A3043 RMK A01 T00291026  RH  068%=      5-min Rain = 0
KSP1 081040Z 02003KT 03/M03 A3043 RMK A01 T00281029  RH  066%=      5-min Rain = 0
KSP1 081045Z 02003KT 03/M02 A3043 RMK A01 T00291024  RH  069%=      5-min Rain = 0
KSP1 081050Z 00003KT 03/M02 A3043 RMK A01 T00291024  RH  069%=      5-min Rain = 0
KSP1 081055Z 01003KT 03/M02 A3043 RMK A01 T00291021  RH  070%=      5-min Rain = 0
KSP1 081100Z 02003KT 03/M02 A3043 RMK A01 T00291022  RH  070%=      5-min Rain = 0
KSP1 081105Z 02004KT 03/M02 A3043 RMK A01 T00291024  RH  069%=      5-min Rain = 0
KSP1 081110Z 02004KT 03/M02 A3043 RMK A01 T00291023  RH  069%=      5-min Rain = 0
KSP1 081115Z 02004KT 03/M02 A3043 RMK A01 T00291022  RH  070%=      5-min Rain = 0
KSP1 081120Z 02004KT 03/M02 A3043 RMK A01 T00291023  RH  069%=      5-min Rain = 0
KSP1 081125Z 02005KT 03/M02 A3043 RMK A01 T00291024  RH  069%=      5-min Rain = 0
KSP1 081130Z 03005KT 03/M03 A3043 RMK A01 T00291025  RH  068%=      5-min Rain = 0
KSP1 081135Z 02004KT 03/M03 A3043 RMK A01 T00291025  RH  068%=      5-min Rain = 0
KSP1 081140Z 03004KT 03/M03 A3042 RMK A01 T00291025  RH  068%=      5-min Rain = 0
KSP1 081145Z 02004KT 03/M02 A3042 RMK A01 T00291022  RH  070%=      5-min Rain = 0
KSP1 081150Z 02005KT 03/M02 A3042 RMK A01 T00291022  RH  069%=      5-min Rain = 0
KSP1 081155Z 01004KT 03/M02 A3043 RMK A01 T00291022  RH  069%=      5-min Rain = 0
KSP1 081200Z 36005KT 03/M02 A3042 RMK A01 T00291023  RH  069%=      5-min Rain = 0
KSP1 081205Z 01004KT 03/M02 A3042 RMK A01 T00301022  RH  069%=      5-min Rain = 0
KSP1 081210Z 01004KT 03/M02 A3042 RMK A01 T00301020  RH  070%=      5-min Rain = 0
KSP1 081215Z 02004KT 03/M02 A3042 RMK A01 T00301020  RH  070%=      5-min Rain = 0
KSP1 081220Z 02003KT 03/M02 A3042 RMK A01 T00301019  RH  071%=      5-min Rain = 0
KSP1 081225Z 02002KT 03/M02 A3041 RMK A01 T00311019  RH  071%=      5-min Rain = 0
KSP1 081230Z 03003KT 03/M02 A3041 RMK A01 T00311020  RH  070%=      5-min Rain = 0
KSP1 081235Z 02003KT 03/M02 A3041 RMK A01 T00311018  RH  071%=      5-min Rain = 0
KSP1 081240Z 03003KT 03/M02 A3041 RMK A01 T00311018  RH  071%=      5-min Rain = 0
KSP1 081245Z 05003KT 03/M02 A3041 RMK A01 T00311016  RH  072%=      5-min Rain = 0
KSP1 081250Z 03003KT 03/M02 A3041 RMK A01 T00311018  RH  071%=      5-min Rain = 0
KSP1 081255Z 04003KT 03/M02 A3042 RMK A01 T00311015  RH  072%=      5-min Rain = 0
KSP1 081300Z 03003KT 03/M01 A3042 RMK A01 T00311014  RH  073%=      5-min Rain = 0
KSP1 081305Z 03002KT 03/M01 A3042 RMK A01 T00321013  RH  073%=      5-min Rain = 0
KSP1 081310Z 03002KT 03/M01 A3042 RMK A01 T00321014  RH  073%=      5-min Rain = 0
KSP1 081315Z 04002KT 03/M02 A3041 RMK A01 T00321016  RH  071%=      5-min Rain = 0
KSP1 081320Z 05003KT 03/M02 A3041 RMK A01 T00321015  RH  072%=      5-min Rain = 0
KSP1 081325Z 07002KT 03/M02 A3041 RMK A01 T00321016  RH  071%=      5-min Rain = 0
KSP1 081330Z 08002KT 03/M02 A3041 RMK A01 T00321018  RH  071%=      5-min Rain = 0
KSP1 081335Z 06003KT 03/M02 A3041 RMK A01 T00321017  RH  071%=      5-min Rain = 0
KSP1 081340Z 07002KT 03/M02 A3041 RMK A01 T00321016  RH  071%=      5-min Rain = 0
KSP1 081345Z 10002KT 03/M02 A3041 RMK A01 T00331018  RH  070%=      5-min Rain = 0
KSP1 081350Z 10001KT 03/M02 A3042 RMK A01 T00331018  RH  070%=      5-min Rain = 0
KSP1 081355Z 08001KT 03/M02 A3042 RMK A01 T00331018  RH  070%=      5-min Rain = 0
KSP1 081400Z 08001KT 03/M02 A3042 RMK A01 T00331019  RH  069%=      5-min Rain = 0
KSP1 081405Z 05002KT 03/M02 A3043 RMK A01 T00341018  RH  069%=      5-min Rain = 0
KSP1 081410Z 03002KT 03/M02 A3043 RMK A01 T00341017  RH  070%=      5-min Rain = 0
KSP1 081415Z 01002KT 04/M02 A3043 RMK A01 T00351017  RH  069%=      5-min Rain = 0
KSP1 081420Z 04002KT 04/M02 A3043 RMK A01 T00351016  RH  070%=      5-min Rain = 0
KSP1 081425Z 07001KT 04/M02 A3043 RMK A01 T00351015  RH  070%=      5-min Rain = 0
KSP1 081430Z 04002KT 04/M02 A3043 RMK A01 T00361016  RH  069%=      5-min Rain = 0
KSP1 081435Z 04002KT 04/M02 A3043 RMK A01 T00361016  RH  069%=      5-min Rain = 0
KSP1 081440Z 03002KT 04/M02 A3044 RMK A01 T00361016  RH  069%=      5-min Rain = 0
KSP1 081445Z 34002KT 04/M02 A3044 RMK A01 T00371015  RH  069%=      5-min Rain = 0
KSP1 081450Z 01001KT 04/M01 A3044 RMK A01 T00381013  RH  070%=      5-min Rain = 0
KSP1 081455Z 07001KT 04/M02 A3044 RMK A01 T00381016  RH  069%=      5-min Rain = 0
KSP1 081500Z 04001KT 04/M02 A3044 RMK A01 T00381016  RH  068%=      5-min Rain = 0
KSP1 081505Z 01002KT 04/M02 A3044 RMK A01 T00381015  RH  069%=      5-min Rain = 0
KSP1 081510Z 32002KT 04/M01 A3044 RMK A01 T00391014  RH  069%=      5-min Rain = 0
KSP1 081515Z 35002KT 04/M01 A3044 RMK A01 T00391014  RH  069%=      5-min Rain = 0
KSP1 081520Z 00002KT 04/M01 A3044 RMK A01 T00391014  RH  069%=      5-min Rain = 0
KSP1 081525Z 36001KT 04/M02 A3045 RMK A01 T00401015  RH  068%=      5-min Rain = 0
KSP1 081530Z 01001KT 04/M01 A3045 RMK A01 T00411013  RH  069%=      5-min Rain = 0
KSP1 081535Z 04002KT 04/M01 A3045 RMK A01 T00421013  RH  068%=      5-min Rain = 0
KSP1 081540Z 02001KT 04/M01 A3045 RMK A01 T00421014  RH  067%=      5-min Rain = 0
KSP1 081545Z 05001KT 04/M01 A3044 RMK A01 T00431013  RH  067%=      5-min Rain = 0
KSP1 081550Z 03002KT 04/M01 A3044 RMK A01 T00441012  RH  067%=      5-min Rain = 0
KSP1 081555Z 35003KT 05/M01 A3045 RMK A01 T00451013  RH  067%=      5-min Rain = 0
KSP1 081600Z 33002KT 05/M02 A3044 RMK A01 T00451015  RH  066%=      5-min Rain = 0
KSP1 081605Z 03002KT 05/M02 A3044 RMK A01 T00451016  RH  065%=      5-min Rain = 0
KSP1 081610Z 36001KT 05/M02 A3044 RMK A01 T00451017  RH  065%=      5-min Rain = 0
KSP1 081615Z 35002KT 05/M01 A3044 RMK A01 T00471014  RH  065%=      5-min Rain = 0
KSP1 081620Z 31001KT 05/M01 A3044 RMK A01 T00481014  RH  065%=      5-min Rain = 0
KSP1 081625Z 31002KT 05/M01 A3044 RMK A01 T00481014  RH  065%=      5-min Rain = 0
KSP1 081630Z 05001KT 05/M01 A3044 RMK A01 T00491013  RH  065%=      5-min Rain = 0
KSP1 081635Z 01003KT 05/M01 A3044 RMK A01 T00501010  RH  066%=      5-min Rain = 0
KSP1 081640Z 35002KT 05/M01 A3044 RMK A01 T00501012  RH  065%=      5-min Rain = 0
KSP1 081645Z 36001KT 05/M01 A3043 RMK A01 T00501014  RH  064%=      5-min Rain = 0
KSP1 081650Z 31001KT 05/M01 A3043 RMK A01 T00511011  RH  065%=      5-min Rain = 0
KSP1 081655Z 03001KT 05/M01 A3042 RMK A01 T00531012  RH  064%=      5-min Rain = 0
KSP1 081700Z 06001KT 05/M01 A3042 RMK A01 T00541009  RH  064%=      5-min Rain = 0
KSP1 081705Z 03001KT 06/M01 A3042 RMK A01 T00561009  RH  063%=      5-min Rain = 0
KSP1 081710Z 07001KT 06/M01 A3042 RMK A01 T00581009  RH  063%=      5-min Rain = 0
KSP1 081715Z 13000KT 06/M01 A3041 RMK A01 T00591008  RH  063%=      5-min Rain = 0
KSP1 081720Z 08001KT 06/M01 A3041 RMK A01 T00601006  RH  063%=      5-min Rain = 0
KSP1 081725Z 14002KT 06/M01 A3041 RMK A01 T00591007  RH  063%=      5-min Rain = 0
KSP1 081730Z 13002KT 06/M01 A3041 RMK A01 T00591006  RH  063%=      5-min Rain = 0
KSP1 081735Z 13002KT 06/M00 A304 RMK A01 T00601004  RH  064%=      5-min Rain = 0
KSP1 081740Z 18002KT 06/M00 A304 RMK A01 T00631003  RH  063%=      5-min Rain = 0
KSP1 081745Z 24001KT 07/M00 A304 RMK A01 T00651003  RH  063%=      5-min Rain = 0
KSP1 081750Z 24003KT 07/00 A3039 RMK A01 T00680001  RH  063%=      5-min Rain = 0
KSP1 081755Z 20002KT 07/00 A3039 RMK A01 T00680001  RH  063%=      5-min Rain = 0
KSP1 081800Z 21003KT 07/01 A3039 RMK A01 T00700005  RH  064%=      5-min Rain = 0
KSP1 081805Z 21004KT 07/01 A3038 RMK A01 T00710007  RH  065%=      5-min Rain = 0
KSP1 081810Z 23002KT 07/01 A3038 RMK A01 T00740010  RH  065%=      5-min Rain = 0
KSP1 081815Z 23004KT 07/01 A3038 RMK A01 T00740010  RH  065%=      5-min Rain = 0
KSP1 081820Z 21002KT 08/01 A3037 RMK A01 T00760012  RH  065%=      5-min Rain = 0
KSP1 081825Z 27003KT 08/02 A3037 RMK A01 T00800016  RH  065%=      5-min Rain = 0
KSP1 081830Z 23003KT 08/01 A3036 RMK A01 T00790013  RH  064%=      5-min Rain = 0
KSP1 081835Z 22004KT 08/02 A3036 RMK A01 T00790017  RH  066%=      5-min Rain = 0
KSP1 081840Z 20002KT 08/02 A3036 RMK A01 T00820018  RH  065%=      5-min Rain = 0
KSP1 081845Z 20005KT 08/02 A3035 RMK A01 T00840019  RH  064%=      5-min Rain = 0
KSP1 081850Z 21003KT 08/02 A3035 RMK A01 T00830018  RH  065%=      5-min Rain = 0
KSP1 081855Z 21003KT 09/02 A3035 RMK A01 T00860021  RH  065%=      5-min Rain = 0
KSP1 081900Z 25004KT 09/02 A3034 RMK A01 T00890022  RH  064%=      5-min Rain = 0
KSP1 081905Z 22005KT 09/02 A3034 RMK A01 T00890022  RH  064%=      5-min Rain = 0
KSP1 081910Z 19004KT 09/02 A3034 RMK A01 T00870020  RH  064%=      5-min Rain = 0
KSP1 081915Z 20004KT 09/02 A3034 RMK A01 T00890023  RH  064%=      5-min Rain = 0
KSP1 081920Z 23004KT 09/03 A3033 RMK A01 T00910027  RH  065%=      5-min Rain = 0
KSP1 081925Z 20005KT 09/03 A3033 RMK A01 T00900026  RH  065%=      5-min Rain = 0
KSP1 081930Z 19004KT 09/02 A3033 RMK A01 T00890024  RH  065%=      5-min Rain = 0
KSP1 081935Z 21003KT 09/02 A3033 RMK A01 T00910024  RH  064%=      5-min Rain = 0
KSP1 081940Z 21002KT 09/03 A3033 RMK A01 T00930025  RH  064%=      5-min Rain = 0
KSP1 081945Z 18003KT 10/02 A3033 RMK A01 T00950024  RH  062%=      5-min Rain = 0
KSP1 081950Z 16003KT 09/03 A3033 RMK A01 T00940025  RH  063%=      5-min Rain = 0
KSP1 081955Z 21003KT 10/03 A3032 RMK A01 T00990029  RH  063%=      5-min Rain = 0
KSP1 082000Z 20002KT 10/03 A3032 RMK A01 T01010031  RH  063%=      5-min Rain = 0
KSP1 082005Z 18002KT 10/03 A3032 RMK A01 T01030033  RH  063%=      5-min Rain = 0
KSP1 082010Z 19003KT 11/04 A3032 RMK A01 T01050036  RH  063%=      5-min Rain = 0
KSP1 082015Z 25003KT 11/04 A3032 RMK A01 T01060039  RH  064%=      5-min Rain = 0
KSP1 082020Z 20005KT 11/04 A3032 RMK A01 T01050037  RH  064%=      5-min Rain = 0
KSP1 082025Z 18004KT 10/04 A3031 RMK A01 T01040035  RH  064%=      5-min Rain = 0
KSP1 082030Z 22004KT 11/04 A3031 RMK A01 T01060038  RH  064%=      5-min Rain = 0
KSP1 082035Z 20005KT 11/04 A3031 RMK A01 T01080038  RH  063%=      5-min Rain = 0
KSP1 082040Z 18006KT 11/04 A3031 RMK A01 T01090038  RH  063%=      5-min Rain = 0
KSP1 082045Z 18005KT 11/04 A3031 RMK A01 T01100038  RH  062%=      5-min Rain = 0
KSP1 082050Z 21005KT 11/04 A3031 RMK A01 T01110039  RH  062%=      5-min Rain = 0
KSP1 082055Z 20005KT 11/04 A303 RMK A01 T01100039  RH  063%=      5-min Rain = 0
KSP1 082100Z 19005KT 11/04 A303 RMK A01 T01100040  RH  063%=      5-min Rain = 0
KSP1 082105Z 17003KT 11/04 A303 RMK A01 T01100039  RH  063%=      5-min Rain = 0
KSP1 082110Z 20004KT 11/04 A303 RMK A01 T01120041  RH  063%=      5-min Rain = 0
KSP1 082115Z 20005KT 11/04 A303 RMK A01 T01130042  RH  063%=      5-min Rain = 0
KSP1 082120Z 20004KT 11/04 A303 RMK A01 T01130044  RH  064%=      5-min Rain = 0
KSP1 082125Z 21005KT 11/04 A3029 RMK A01 T01130043  RH  063%=      5-min Rain = 0.01
KSP1 082130Z 20004KT 12/05 A3029 RMK A01 T01150045  RH  063%=      5-min Rain = 0
KSP1 082135Z 20004KT 11/04 A3029 RMK A01 T01130042  RH  063%=      5-min Rain = 0
KSP1 082140Z 22004KT 11/05 A3029 RMK A01 T01130045  RH  064%=      5-min Rain = 0
KSP1 082145Z 22005KT 11/04 A3029 RMK A01 T01130043  RH  063%=      5-min Rain = 0
KSP1 082150Z 21005KT 11/04 A3029 RMK A01 T01120044  RH  064%=      5-min Rain = 0
KSP1 082155Z 20005KT 11/04 A3029 RMK A01 T01130044  RH  064%=      5-min Rain = 0
KSP1 082200Z 20006KT 11/04 A3028 RMK A01 T01130044  RH  064%=      5-min Rain = 0
KSP1 082205Z 21006KT 11/04 A3028 RMK A01 T01130044  RH  064%=      5-min Rain = 0
KSP1 082210Z 21005KT 12/05 A3028 RMK A01 T01160046  RH  064%=      5-min Rain = 0
KSP1 082215Z 21006KT 11/05 A3028 RMK A01 T01140046  RH  064%=      5-min Rain = 0
KSP1 082220Z 21006KT 11/05 A3028 RMK A01 T01130045  RH  064%=      5-min Rain = 0
KSP1 082225Z 21007KT 11/05 A3028 RMK A01 T01120045  RH  065%=      5-min Rain = 0
KSP1 082230Z 20006KT 11/05 A3028 RMK A01 T01120046  RH  065%=      5-min Rain = 0
KSP1 082235Z 20006KT 11/05 A3028 RMK A01 T01130047  RH  065%=      5-min Rain = 0
KSP1 082240Z 20006KT 11/05 A3028 RMK A01 T01140045  RH  064%=      5-min Rain = 0
KSP1 082245Z 22006KT 11/05 A3028 RMK A01 T01120047  RH  066%=      5-min Rain = 0
KSP1 082250Z 21006KT 11/05 A3028 RMK A01 T01140048  RH  065%=      5-min Rain = 0
KSP1 082255Z 20005KT 12/05 A3028 RMK A01 T01160048  RH  064%=      5-min Rain = 0
KSP1 082300Z 21006KT 12/05 A3028 RMK A01 T01150047  RH  064%=      5-min Rain = 0
KSP1 082305Z 19005KT 11/05 A3028 RMK A01 T01140046  RH  065%=      5-min Rain = 0
KSP1 082310Z 20005KT 11/05 A3028 RMK A01 T01120048  RH  066%=      5-min Rain = 0
KSP1 082315Z 20005KT 11/05 A3028 RMK A01 T01120047  RH  066%=      5-min Rain = 0
KSP1 082320Z 20005KT 11/05 A3028 RMK A01 T01100048  RH  067%=      5-min Rain = 0
KSP1 082325Z 20006KT 11/05 A3028 RMK A01 T01070048  RH  068%=      5-min Rain = 0
KSP1 082330Z 19006KT 10/05 A3028 RMK A01 T01040048  RH  070%=      5-min Rain = 0
KSP1 082335Z 20005KT 10/05 A3028 RMK A01 T01010049  RH  072%=      5-min Rain = 0
KSP1 082340Z 19005KT 10/05 A3028 RMK A01 T00970048  RH  073%=      5-min Rain = 0
KSP1 082345Z 20005KT 10/05 A3028 RMK A01 T00950049  RH  074%=      5-min Rain = 0
KSP1 082350Z 20005KT 09/05 A3028 RMK A01 T00920048  RH  075%=      5-min Rain = 0
KSP1 082355Z 19005KT 09/05 A3028 RMK A01 T00900047  RH  076%=      5-min Rain = 0
KSP1 090000Z 20004KT 09/05 A3028 RMK A01 T00880048  RH  078%=      5-min Rain = 0
KSP1 090005Z 20004KT 09/05 A3028 RMK A01 T00850047  RH  079%=      5-min Rain = 0
KSP1 090010Z 19005KT 08/05 A3028 RMK A01 T00820046  RH  080%=      5-min Rain = 0
KSP1 090015Z 20005KT 08/05 A3028 RMK A01 T00810047  RH  081%=      5-min Rain = 0
KSP1 090020Z 20005KT 08/05 A3028 RMK A01 T00790046  RH  081%=      5-min Rain = 0
KSP1 090025Z 20005KT 08/05 A3028 RMK A01 T00780047  RH  082%=      5-min Rain = 0
KSP1 090030Z 20005KT 08/05 A3028 RMK A01 T00760046  RH  083%=      5-min Rain = 0
KSP1 090035Z 20006KT 08/05 A3028 RMK A01 T00750045  RH  083%=      5-min Rain = 0
KSP1 090040Z 20005KT 07/05 A3028 RMK A01 T00740045  RH  084%=      5-min Rain = 0
KSP1 090045Z 21004KT 07/04 A3028 RMK A01 T00720044  RH  084%=      5-min Rain = 0
KSP1 090050Z 20004KT 07/04 A3028 RMK A01 T00710043  RH  084%=      5-min Rain = 0
KSP1 090055Z 21004KT 07/04 A3029 RMK A01 T00690043  RH  085%=      5-min Rain = 0
KSP1 090100Z 21004KT 07/04 A3029 RMK A01 T00670044  RH  087%=      5-min Rain = 0
KSP1 090105Z 21004KT 07/04 A3029 RMK A01 T00660044  RH  087%=      5-min Rain = 0
KSP1 090110Z 21004KT 07/04 A3029 RMK A01 T00660043  RH  087%=      5-min Rain = 0
KSP1 090115Z 21003KT 06/04 A3029 RMK A01 T00640043  RH  088%=      5-min Rain = 0
KSP1 090120Z 21004KT 06/04 A3029 RMK A01 T00620041  RH  088%=      5-min Rain = 0
KSP1 090125Z 21004KT 06/04 A3029 RMK A01 T00610041  RH  089%=      5-min Rain = 0
KSP1 090130Z 21004KT 06/04 A3029 RMK A01 T00610042  RH  089%=      5-min Rain = 0
KSP1 090135Z 22004KT 06/04 A3029 RMK A01 T00620042  RH  089%=      5-min Rain = 0
KSP1 090140Z 22004KT 06/04 A3029 RMK A01 T00630043  RH  089%=      5-min Rain = 0
KSP1 090145Z 22004KT 06/04 A3029 RMK A01 T00630043  RH  088%=      5-min Rain = 0
KSP1 090150Z 22004KT 06/04 A3029 RMK A01 T00630043  RH  089%=      5-min Rain = 0
KSP1 090155Z 22004KT 06/04 A3029 RMK A01 T00620043  RH  089%=      5-min Rain = 0
KSP1 090200Z 22003KT 06/04 A3029 RMK A01 T00610042  RH  089%=      5-min Rain = 0
KSP1 090205Z 22003KT 06/04 A3029 RMK A01 T00590040  RH  090%=      5-min Rain = 0
KSP1 090210Z 22003KT 06/04 A3029 RMK A01 T00570040  RH  090%=      5-min Rain = 0
KSP1 090215Z 23002KT 06/04 A3029 RMK A01 T00560039  RH  091%=      5-min Rain = 0
KSP1 090220Z 23003KT 06/04 A3029 RMK A01 T00550039  RH  091%=      5-min Rain = 0
KSP1 090225Z 24002KT 06/04 A3029 RMK A01 T00550039  RH  091%=      5-min Rain = 0
KSP1 090230Z 24003KT 05/04 A3029 RMK A01 T00540038  RH  091%=      5-min Rain = 0
KSP1 090235Z 24002KT 05/04 A3029 RMK A01 T00530037  RH  091%=      5-min Rain = 0
KSP1 090240Z 24003KT 05/04 A3029 RMK A01 T00520037  RH  092%=      5-min Rain = 0
KSP1 090245Z 23004KT 05/04 A3029 RMK A01 T00520037  RH  092%=      5-min Rain = 0
KSP1 090250Z 23003KT 05/04 A3029 RMK A01 T00510037  RH  092%=      5-min Rain = 0
KSP1 090255Z 23003KT 05/04 A3029 RMK A01 T00500036  RH  092%=      5-min Rain = 0
KSP1 090300Z 23004KT 05/04 A3029 RMK A01 T00490035  RH  092%=      5-min Rain = 0
KSP1 090305Z 23004KT 05/04 A3029 RMK A01 T00480035  RH  093%=      5-min Rain = 0
KSP1 090310Z 22003KT 05/04 A3029 RMK A01 T00480035  RH  093%=      5-min Rain = 0
KSP1 090315Z 22003KT 05/04 A3029 RMK A01 T00480035  RH  093%=      5-min Rain = 0
KSP1 090320Z 22003KT 05/03 A3029 RMK A01 T00470034  RH  093%=      5-min Rain = 0
KSP1 090325Z 22003KT 05/03 A3029 RMK A01 T00460033  RH  093%=      5-min Rain = 0
KSP1 090330Z 22003KT 05/03 A3029 RMK A01 T00460034  RH  094%=      5-min Rain = 0
KSP1 090335Z 23003KT 05/03 A3029 RMK A01 T00460034  RH  094%=      5-min Rain = 0
KSP1 090340Z 24003KT 05/04 A3029 RMK A01 T00460035  RH  094%=      5-min Rain = 0
KSP1 090345Z 24003KT 05/03 A3029 RMK A01 T00460034  RH  094%=      5-min Rain = 0
KSP1 090350Z 24003KT 05/03 A3029 RMK A01 T00460034  RH  094%=      5-min Rain = 0
KSP1 090355Z 24003KT 05/04 A3029 RMK A01 T00470035  RH  094%=      5-min Rain = 0
KSP1 090400Z 23003KT 05/04 A3029 RMK A01 T00470035  RH  093%=      5-min Rain = 0
KSP1 090405Z 23003KT 05/03 A3029 RMK A01 T00450034  RH  094%=      5-min Rain = 0
KSP1 090410Z 23003KT 05/04 A3029 RMK A01 T00470036  RH  095%=      5-min Rain = 0
KSP1 090415Z 25003KT 05/04 A3029 RMK A01 T00490038  RH  095%=      5-min Rain = 0
KSP1 090420Z 25003KT 05/04 A3029 RMK A01 T00500037  RH  094%=      5-min Rain = 0
KSP1 090425Z 25003KT 05/04 A3029 RMK A01 T00480035  RH  093%=      5-min Rain = 0
KSP1 090430Z 25004KT 05/03 A3029 RMK A01 T00470034  RH  093%=      5-min Rain = 0
KSP1 090435Z 24003KT 05/03 A3029 RMK A01 T00460033  RH  093%=      5-min Rain = 0
KSP1 090440Z 24004KT 05/03 A3029 RMK A01 T00460033  RH  093%=      5-min Rain = 0
KSP1 090445Z 24004KT 05/03 A3028 RMK A01 T00450033  RH  093%=      5-min Rain = 0
KSP1 090450Z 24004KT 05/03 A3028 RMK A01 T00460034  RH  094%=      5-min Rain = 0
KSP1 090455Z 24003KT 05/03 A3028 RMK A01 T00450033  RH  094%=      5-min Rain = 0
KSP1 090500Z 24003KT 04/03 A3028 RMK A01 T00440033  RH  094%=      5-min Rain = 0
KSP1 090505Z 24003KT 04/03 A3028 RMK A01 T00430032  RH  094%=      5-min Rain = 0
KSP1 090510Z 24003KT 04/03 A3028 RMK A01 T00420031  RH  095%=      5-min Rain = 0
KSP1 090515Z 24003KT 04/03 A3028 RMK A01 T00410031  RH  095%=      5-min Rain = 0
KSP1 090520Z 24003KT 04/03 A3028 RMK A01 T00400031  RH  095%=      5-min Rain = 0
KSP1 090525Z 25004KT 04/03 A3028 RMK A01 T00410033  RH  096%=      5-min Rain = 0
KSP1 090530Z 27003KT 04/03 A3028 RMK A01 T00420033  RH  096%=      5-min Rain = 0
KSP1 090535Z 28001KT 04/03 A3028 RMK A01 T00370028  RH  095%=      5-min Rain = 0
KSP1 090540Z 28001KT 04/03 A3028 RMK A01 T00350026  RH  095%=      5-min Rain = 0
KSP1 090545Z 28002KT 04/03 A3028 RMK A01 T00350026  RH  096%=      5-min Rain = 0
KSP1 090550Z 27002KT 04/03 A3028 RMK A01 T00350027  RH  096%=      5-min Rain = 0
KSP1 090555Z 27002KT 03/03 A3028 RMK A01 T00340026  RH  096%=      5-min Rain = 0

Page generated in 0.01 seconds.